NCAR-RAP Real-Time Weather Data

Output produced by METARs form (23 February 2020  02:39 UTC)
found at http://weather.rap.ucar.edu/surface/
 
KSEA 230153Z 00000KT 10SM FEW022 SCT045 BKN180 07/06 A3012 RMK AO2 SLP208 T00720056
KSEA 230053Z 00000KT 10SM FEW012 BKN044 BKN100 BKN200 08/05 A3013 RMK AO2 SLP212 T00830050
KSEA 222353Z 00000KT 10SM FEW006 BKN033 OVC046 08/06 A3014 RMK AO2 RAE26 SLP214 P0000 60007 T00830056 10083 20061 56014
KSEA 222338Z 00000KT 9SM SCT006 BKN030 OVC050 08/06 A3014 RMK AO2 RAE26 P0000 T00830056
KSEA 222253Z 00000KT 6SM -RA BR SCT006 BKN013 OVC019 07/06 A3015 RMK AO2 SLP218 P0007 T00720056
KSEA 222232Z 00000KT 6SM -RA BR SCT006 BKN013 OVC021 07/06 A3015 RMK AO2 P0006 T00720056
KSEA 222210Z 00000KT 4SM -RA BR BKN008 OVC015 07/06 A3016 RMK AO2 P0001 T00720056
KSEA 222153Z 00000KT 5SM -RA BR SCT008 OVC015 07/06 A3016 RMK AO2 RAB50 SLP223 P0000 T00720056
KSEA 222053Z 27004KT 7SM FEW008 OVC016 08/05 A3018 RMK AO2 SLP228 60000 T00780050 50001
KSEA 221953Z VRB04KT 10SM FEW005 FEW014 OVC022 07/05 A3019 RMK AO2 RAB17E26 SLP231 P0000 T00720050
KSEA 221946Z 24005KT 10SM FEW005 FEW014 OVC022 08/06 A3019 RMK AO2 RAB17E26 P0000 T00780056
KSEA 221929Z 24004KT 5SM BR FEW005 BKN014 OVC022 07/06 A3018 RMK AO2 RAB17E26 P0000 T00720056
KSEA 221853Z 00000KT 4SM BR BKN014 BKN019 OVC027 06/05 A3018 RMK AO2 DZB21E49 SLP230 P0000 T00610050
KSEA 221753Z 25005KT 10SM OVC013 07/03 A3018 RMK AO2 SLP227 60000 T00670033 10067 20044 51027
KSEA 221729Z 20004KT 10SM OVC014 07/03 A3017 RMK AO2 T00670028
KSEA 221653Z 18003KT 10SM OVC016 07/02 A3016 RMK AO2 SLP220 T00670022
KSEA 221553Z 18008KT 10SM OVC016 06/02 A3013 RMK AO2 RAE06 SLP210 P0000 T00610022
KSEA 221502Z 18010KT 10SM -RA BKN020 BKN060 OVC075 06/02 A3010 RMK AO2 P0000 T00560017
KSEA 221453Z 17013KT 10SM -RA SCT020 BKN060 OVC070 06/02 A3009 RMK AO2 RAB50 SLP199 P0000 60000 T00560017 58010
KSEA 221353Z 19013KT 10SM FEW015 FEW075 BKN090 06/02 A3010 RMK AO2 SLP201 T00560022
KSEA 221332Z 18012KT 10SM SCT015 BKN090 05/02 A3011 RMK AO2 T00500022
KSEA 221253Z 16009KT 10SM SCT016 BKN021 04/02 A3012 RMK AO2 SLP208 T00440017
KSEA 221153Z 15009KT 10SM BKN019 04/02 A3013 RMK AO2 SLP209 7//// T00440017 10072 20039 58007
KSEA 221100Z 15012KT 10SM OVC019 04/02 A3013 RMK AO2 T00440017
KSEA 221053Z 15011KT 10SM SCT018 04/02 A3014 RMK AO2 SLP212 T00440017
KSEA 220953Z 15007KT 10SM SCT016 BKN140 OVC200 05/02 A3015 RMK AO2 SLP217 T00500022
KSEA 220853Z 17005KT 10SM FEW016 BKN140 OVC200 06/03 A3015 RMK AO2 SLP216 T00560028 55001
KSEA 220753Z 20008KT 10SM SCT016 BKN140 OVC200 06/03 A3014 RMK AO2 SLP212 T00610028 401220017
KSEA 220747Z 20007KT 10SM SCT016 BKN140 OVC200 06/03 A3013 RMK AO2
KSEA 220712Z 22008KT 10SM BKN017 06/03 A3015 RMK AO2 T00610033
KSEA 220653Z 21007KT 10SM FEW150 SCT250 06/03 A3015 RMK AO2 SLP218 T00610028
KSEA 220553Z 20006KT 10SM FEW150 SCT250 07/03 A3014 RMK AO2 SLP216 T00670033 10117 20067 51005
KSEA 220453Z 22006KT 10SM SCT140 BKN250 07/03 A3014 RMK AO2 SLP214 T00720028
KSEA 220353Z 25006KT 10SM SCT140 BKN250 09/02 A3013 RMK AO2 SLP212 T00890017
KSEA 220253Z 22005KT 10SM SCT150 BKN250 09/01 A3013 RMK AO2 SLP210 T00890011 55003
KSEA 220153Z 21005KT 10SM SCT150 BKN250 11/01 A3011 RMK AO2 SLP206 ACSL DSNT SE T01060006
KSEA 220053Z 20004KT 10SM SCT160 BKN250 11/00 A3012 RMK AO2 SLP208 ACSL DSNT SE T01110000
KSEA 212353Z 20007KT 10SM SCT160 BKN250 12/00 A3014 RMK AO2 SLP213 ACSL DSNT SE 6//// T01170000 10122 20072 56015
KSEA 212253Z 20006KT 10SM FEW160 BKN250 12/M01 A3014 RMK AO2 SLP214 T01221006
KSEA 212153Z 21007KT 10SM SCT160 BKN250 12/M01 A3016 RMK AO2 SLP223 T01171011
KSEA 212053Z 22009KT 10SM SCT160 BKN250 11/M01 A3018 RMK AO2 SLP228 6//// T01111011 58013
KSEA 211953Z 00000KT 10SM SCT180 BKN250 11/00 A3020 RMK AO2 SLP236 T01060000 PNO $
KSEA 211853Z 19005KT 10SM BKN250 09/01 A3021 RMK AO2 SLP237 T00890011 PNO $
KSEA 211753Z 19004KT 10SM BKN250 07/01 A3022 RMK AO2 SLP241 6//// T00670006 10072 20017 50005 PNO $
KSEA 211653Z 26003KT 10SM FEW160 BKN210 05/00 A3022 RMK AO2 SLP244 T00500000 PNO $
KSEA 211553Z 25003KT 10SM FEW160 BKN210 03/M01 A3021 RMK AO2 SLP240 T00331011
KSEA 211453Z 13008KT 10SM BKN250 03/M02 A3020 RMK AO2 SLP236 T00331017 58003
KSEA 211353Z 15004KT 10SM SCT250 02/M02 A3021 RMK AO2 SLP239 T00221022
KSEA 211253Z 00000KT 10SM SCT250 03/M03 A3022 RMK AO2 SLP240 T00281028
KSEA 211153Z 12005KT 10SM SCT250 03/M03 A3021 RMK AO2 SLP238 T00331028 10089 20017 58005
KSEA 211053Z 00000KT 10SM CLR 04/M02 A3023 RMK AO2 SLP243 T00391022
KSEA 210953Z 14006KT 10SM CLR 03/M02 A3022 RMK AO2 SLP243 T00331022
KSEA 210853Z 16006KT 10SM CLR 04/M03 A3023 RMK AO2 SLP243 T00441028 55005
KSEA 210753Z 13009KT 10SM CLR 06/M02 A3022 RMK AO2 SLP242 T00611022 401440056
KSEA 210653Z 13007KT 10SM CLR 07/M03 A3024 RMK AO2 SLP247 T00721028
KSEA 210553Z 12006KT 10SM CLR 08/M03 A3024 RMK AO2 SLP248 T00781028 10144 20078 53008
KSEA 210453Z 12007KT 10SM CLR 08/M03 A3023 RMK AO2 SLP244 T00781028
KSEA 210353Z 11007KT 10SM CLR 09/M03 A3022 RMK AO2 SLP242 T00941028
KSEA 210253Z 00000KT 10SM CLR 09/M03 A3022 RMK AO2 SLP241 T00941033 53002